Qamdo, China
Current Conditions -  °F | °C
As of 5:00 PM on Thursday 23 Oct 2014 (Local Time) from ZUUU Reporting Station
Few Clouds Few Clouds  
Wind Chill: 77°   Ceiling: Unl
Heat Index: 78°   Visibility: 6mi
Dew Point: 50°   Wind: 7mph
Humidity: 39%   Direction: 110°ESE
Pressure: 30"   Gusts: NA
Location:  31.15°N, 97.17°E
Report Text: ZUUU 230900Z 11003MPS 030V180 9999 FEW030 25/10 Q1016 NOSIG
Loading
Personal Weather Stations






























Interactive Weather Map
Tropical Storm Tracking
New forecast layout! Learn more

10-Day Weather Forecast

Advertisements
Track Severe Weather on mobile